Alger, Ohio
Current Conditions -  °F | °C
As of 4:53 PM on Wednesday 22 Oct 2014 (Local Time) from KAOH Reporting Station
Overcast Overcast  
Wind Chill: 47°   Ceiling: 1900
Heat Index: 49°   Visibility: 10mi
Dew Point: 40°   Wind: 6mph
Humidity: 71%   Direction: 360°N
Pressure: 30.29"   Gusts: NA
Location:  40.71°N, 83.84°W
Report Text: KAOH 222053Z AUTO 36005KT 10SM OVC019 09/04 A3029 RMK AO2 SLP260 T00940044 56006
Loading
Personal Weather Stations






























Interactive Weather Map
Tropical Storm Tracking
New forecast layout! Learn more

10-Day Weather Forecast

Advertisements
Track Severe Weather on mobile